Time;durP1;ratioP1;P1;durP2;ratioP2;P2;SDS_P1;SDS_P2;PMS_P1;PMS_P2;Temp;Humidity;BMP_temperature;BMP_pressure;BME280_temperature;BME280_humidity;BME280_pressure;Samples;Min_cycle;Max_cycle;Signal;HPM_P1;HPM_P2
2020/12/21 00:01:40;;;;;;;4.60;2.30;;;;;;;4.96;82.62;96239.50;5073672;28;20184;-77
2020/12/21 00:04:05;;;;;;;4.57;3.07;;;;;;;4.91;82.54;96236.38;5073408;28;20189;-77
2020/12/21 00:06:30;;;;;;;5.07;2.57;;;;;;;4.88;82.94;96231.44;5072591;28;20665;-77
2020/12/21 00:08:56;;;;;;;3.20;2.37;;;;;;;4.80;82.62;96239.63;5070180;28;20391;-77
2020/12/21 00:11:21;;;;;;;4.30;3.00;;;;;;;4.76;82.81;96243.28;5053080;28;20180;-77
2020/12/21 00:13:47;;;;;;;5.90;3.83;;;;;;;4.76;83.32;96248.44;5071318;28;20176;-76
2020/12/21 00:16:13;;;;;;;6.30;3.53;;;;;;;4.77;83.75;96245.81;5073509;28;20184;-76
2020/12/21 00:18:38;;;;;;;5.67;3.23;;;;;;;4.79;83.27;96248.28;5073480;28;20223;-77
2020/12/21 00:21:04;;;;;;;7.33;4.13;;;;;;;4.81;83.55;96241.28;5073738;28;20644;-77
2020/12/21 00:23:30;;;;;;;7.13;3.90;;;;;;;4.82;83.37;96238.59;5056755;28;20199;-77
2020/12/21 00:25:55;;;;;;;7.90;4.87;;;;;;;4.82;83.43;96240.34;5072455;28;20200;-77
2020/12/21 00:28:20;;;;;;;2.90;2.07;;;;;;;4.83;83.42;96240.25;5056404;28;20212;-77
2020/12/21 00:30:46;;;;;;;3.40;1.77;;;;;;;4.88;83.06;96244.31;5090149;28;20595;-77
2020/12/21 00:33:12;;;;;;;1.70;1.50;;;;;;;4.94;83.11;96243.91;5056811;28;20180;-77
2020/12/21 00:35:37;;;;;;;2.30;1.63;;;;;;;4.93;83.58;96244.81;5087143;28;20678;-77
2020/12/21 00:38:02;;;;;;;2.53;1.80;;;;;;;4.91;83.46;96237.22;5047668;28;20181;-77
2020/12/21 00:40:28;;;;;;;2.47;1.53;;;;;;;4.93;83.80;96242.25;5068744;28;20216;-77
2020/12/21 00:42:54;;;;;;;1.97;1.20;;;;;;;4.94;83.77;96237.00;5071348;28;20225;-78
2020/12/21 00:45:19;;;;;;;2.53;1.57;;;;;;;4.91;84.24;96239.78;5053469;28;20274;-77
2020/12/21 00:47:45;;;;;;;4.17;1.50;;;;;;;4.91;83.73;96246.69;5067728;28;20185;-76
2020/12/21 00:50:10;;;;;;;1.80;1.47;;;;;;;4.90;83.77;96245.03;5073292;28;20283;-76
2020/12/21 00:52:35;;;;;;;4.60;2.70;;;;;;;4.92;83.71;96235.47;5094258;28;20177;-77
2020/12/21 00:55:01;;;;;;;3.97;3.10;;;;;;;4.86;83.92;96240.97;5095066;28;20695;-77
2020/12/21 00:57:31;;;;;;;3.23;2.70;;;;;;;4.83;84.07;96237.69;5092924;28;20665;-77
2020/12/21 00:59:56;;;;;;;4.57;2.60;;;;;;;4.76;83.99;96238.97;5092699;28;20180;-77
2020/12/21 01:02:22;;;;;;;3.37;2.10;;;;;;;4.67;83.83;96246.44;5093730;28;20667;-77
2020/12/21 01:04:47;;;;;;;4.30;2.90;;;;;;;4.57;84.14;96253.06;5093647;28;20200;-77
2020/12/21 01:07:12;;;;;;;1.90;1.63;;;;;;;4.54;84.40;96246.38;5093327;28;20177;-77
2020/12/21 01:09:37;;;;;;;3.00;1.70;;;;;;;4.39;84.44;96242.97;5092370;28;20247;-77
2020/12/21 01:12:03;;;;;;;2.47;1.87;;;;;;;4.34;84.56;96241.63;5095054;28;20628;-77
2020/12/21 01:14:28;;;;;;;2.40;2.20;;;;;;;4.23;84.22;96237.94;5076805;28;20204;-77
2020/12/21 01:16:53;;;;;;;4.47;2.03;;;;;;;4.14;84.36;96243.63;5076661;28;20173;-77
2020/12/21 01:19:19;;;;;;;3.00;2.17;;;;;;;4.09;84.43;96235.38;5074385;28;20593;-77
2020/12/21 01:21:44;;;;;;;6.50;2.70;;;;;;;3.97;84.52;96236.09;5043245;28;20177;-77
2020/12/21 01:24:09;;;;;;;2.90;1.60;;;;;;;3.99;84.75;96231.72;5094687;28;20214;-77
2020/12/21 01:26:35;;;;;;;3.30;2.30;;;;;;;3.88;84.50;96224.59;5059909;28;20180;-77
2020/12/21 01:29:00;;;;;;;2.77;1.80;;;;;;;3.81;84.77;96231.03;5079650;28;20220;-76
2020/12/21 01:31:25;;;;;;;3.60;2.70;;;;;;;3.73;85.06;96234.97;5081249;28;20652;-76
2020/12/21 01:33:51;;;;;;;3.63;2.47;;;;;;;3.75;84.70;96246.81;5058981;28;20215;-77
2020/12/21 01:36:20;;;;;;;5.20;2.87;;;;;;;3.68;85.13;96236.06;5056414;28;20177;-77
2020/12/21 01:38:46;;;;;;;3.03;2.50;;;;;;;3.67;85.26;96236.97;5039601;28;20211;-77
2020/12/21 01:41:11;;;;;;;5.23;2.70;;;;;;;3.63;85.55;96245.78;5084723;28;20271;-77
2020/12/21 01:43:36;;;;;;;3.33;2.40;;;;;;;3.62;86.26;96248.41;5076450;28;20227;-77
2020/12/21 01:46:08;;;;;;;5.60;2.30;;;;;;;3.61;86.29;96250.16;5076231;28;20232;-76
2020/12/21 01:48:34;;;;;;;3.60;2.30;;;;;;;3.62;86.10;96246.69;5059111;28;20172;-77
2020/12/21 01:50:59;;;;;;;4.23;2.53;;;;;;;3.58;85.83;96241.81;5073893;28;20188;-77
2020/12/21 01:53:24;;;;;;;3.33;2.70;;;;;;;3.61;86.33;96242.44;5059184;28;20191;-77
2020/12/21 01:55:53;;;;;;;2.60;2.40;;;;;;;3.60;86.03;96243.38;5076108;28;20203;-77
2020/12/21 01:58:18;;;;;;;7.00;3.23;;;;;;;3.63;86.91;96242.38;5075764;28;20275;-77
2020/12/21 02:00:44;;;;;;;3.70;2.77;;;;;;;3.63;86.71;96243.22;5091809;28;20315;-76
2020/12/21 02:03:09;;;;;;;3.00;2.63;;;;;;;3.64;86.76;96242.28;5093857;28;20223;-77
2020/12/21 02:05:35;;;;;;;4.20;2.70;;;;;;;3.63;86.42;96240.66;5075598;28;20578;-77
2020/12/21 02:08:01;;;;;;;2.77;2.20;;;;;;;3.60;86.56;96245.94;5075892;28;20185;-77
2020/12/21 02:10:26;;;;;;;3.37;2.50;;;;;;;3.62;86.73;96239.00;5075265;28;20218;-76
2020/12/21 02:12:52;;;;;;;3.90;2.80;;;;;;;3.64;86.93;96239.72;5077078;28;20813;-76
2020/12/21 02:15:17;;;;;;;4.47;2.50;;;;;;;3.65;86.74;96240.56;5055194;28;20201;-77
2020/12/21 02:17:42;;;;;;;4.20;2.73;;;;;;;3.64;86.68;96232.03;5073230;28;20177;-77
2020/12/21 02:20:07;;;;;;;3.10;2.80;;;;;;;3.69;86.66;96224.03;5055386;28;20170;-77
2020/12/21 02:22:33;;;;;;;2.70;2.47;;;;;;;3.59;86.84;96223.75;5074866;28;20551;-77
2020/12/21 02:24:58;;;;;;;4.00;2.80;;;;;;;3.60;86.86;96225.41;5069977;28;20213;-77
2020/12/21 02:27:23;;;;;;;3.00;2.70;;;;;;;3.49;86.82;96217.50;5075560;28;20172;-77
2020/12/21 02:29:49;;;;;;;3.97;2.43;;;;;;;3.50;86.99;96215.75;5092967;28;20219;-77
2020/12/21 02:32:14;;;;;;;2.80;2.20;;;;;;;3.43;87.03;96222.97;5093343;28;20172;-77
2020/12/21 02:34:39;;;;;;;5.03;2.63;;;;;;;3.43;87.07;96217.84;5070317;28;20669;-77
2020/12/21 02:37:05;;;;;;;3.20;2.17;;;;;;;3.46;87.37;96222.81;5089090;28;20209;-77
2020/12/21 02:39:30;;;;;;;3.20;2.40;;;;;;;3.38;87.15;96217.28;5093120;28;20176;-77
2020/12/21 02:41:55;;;;;;;3.03;2.40;;;;;;;3.35;87.00;96215.69;5093266;28;20179;-77
2020/12/21 02:44:20;;;;;;;2.47;2.10;;;;;;;3.31;87.13;96221.09;5069921;28;20208;-77
2020/12/21 02:46:46;;;;;;;2.20;2.00;;;;;;;3.34;87.52;96213.22;5092924;28;20662;-77
2020/12/21 02:49:11;;;;;;;3.60;2.43;;;;;;;3.25;87.30;96208.59;5092866;28;20204;-77
2020/12/21 02:51:37;;;;;;;2.73;2.00;;;;;;;3.35;87.17;96217.44;5074989;28;20174;-76
2020/12/21 02:54:02;;;;;;;3.53;1.93;;;;;;;3.27;87.67;96211.91;5072702;28;20192;-77
2020/12/21 02:56:28;;;;;;;3.87;1.97;;;;;;;3.22;87.60;96213.94;5066036;28;20192;-77
2020/12/21 02:58:53;;;;;;;2.17;1.67;;;;;;;3.19;87.17;96214.94;5092737;28;20539;-77
2020/12/21 03:01:18;;;;;;;2.97;1.73;;;;;;;3.17;87.25;96216.75;5058164;28;20182;-77
2020/12/21 03:03:43;;;;;;;1.40;1.30;;;;;;;3.12;86.85;96214.44;5092729;28;20186;-76
2020/12/21 03:06:09;;;;;;;4.03;2.03;;;;;;;3.12;87.18;96214.44;5090415;28;20419;-77
2020/12/21 03:08:34;;;;;;;3.23;1.57;;;;;;;3.03;87.15;96217.53;5074144;28;20179;-77
2020/12/21 03:10:59;;;;;;;2.97;1.63;;;;;;;3.04;87.34;96214.03;5091988;28;20184;-77
2020/12/21 03:13:25;;;;;;;3.50;2.30;;;;;;;3.07;87.37;96219.00;5092526;28;20180;-76
2020/12/21 03:15:50;;;;;;;3.07;1.50;;;;;;;3.17;87.27;96218.47;5087124;28;20207;-77
2020/12/21 03:18:15;;;;;;;3.77;2.03;;;;;;;3.08;87.26;96218.06;5071567;28;20184;-77
2020/12/21 03:20:40;;;;;;;5.03;1.93;;;;;;;3.18;86.62;96222.69;5074259;28;20195;-77
2020/12/21 03:23:06;;;;;;;3.90;1.97;;;;;;;3.08;87.01;96212.94;5074315;28;20183;-77
2020/12/21 03:25:31;;;;;;;1.90;1.63;;;;;;;3.10;87.37;96208.59;5074606;28;20667;-77
2020/12/21 03:27:56;;;;;;;2.30;1.80;;;;;;;3.07;87.06;96205.34;5069939;28;20181;-77
2020/12/21 03:30:22;;;;;;;4.60;2.00;;;;;;;3.02;86.94;96204.78;5073558;28;20237;-77
2020/12/21 03:32:47;;;;;;;3.27;2.00;;;;;;;3.05;87.30;96214.88;5074217;28;20203;-77
2020/12/21 03:35:12;;;;;;;3.93;2.03;;;;;;;3.11;87.43;96209.41;5074106;28;20556;-77
2020/12/21 03:37:37;;;;;;;5.93;2.00;;;;;;;3.17;87.31;96206.47;5090807;28;20188;-77
2020/12/21 03:40:04;;;;;;;3.83;1.90;;;;;;;3.26;87.25;96205.94;5057101;28;20164;-77
2020/12/21 03:42:29;;;;;;;4.87;2.10;;;;;;;3.31;87.65;96213.41;5073996;28;20198;-77
2020/12/21 03:44:54;;;;;;;2.37;1.50;;;;;;;3.38;87.28;96209.59;5091954;28;20192;-77
2020/12/21 03:47:20;;;;;;;2.40;1.77;;;;;;;3.48;87.13;96199.59;5056049;28;20178;-77
2020/12/21 03:49:45;;;;;;;4.03;2.03;;;;;;;3.44;87.35;96193.81;5069218;28;20199;-77
2020/12/21 03:52:10;;;;;;;3.97;1.93;;;;;;;3.53;86.71;96195.84;5053747;28;20172;-78
2020/12/21 03:54:36;;;;;;;1.50;1.40;;;;;;;3.61;87.07;96190.25;5073965;28;20231;-77
2020/12/21 03:57:01;;;;;;;2.07;1.40;;;;;;;3.69;86.83;96188.91;5073975;28;20251;-77
2020/12/21 03:59:26;;;;;;;2.27;1.60;;;;;;;3.76;86.68;96199.66;5082394;28;20356;-77
2020/12/21 04:01:52;;;;;;;8.70;1.97;;;;;;;3.78;86.33;96189.28;5091789;28;20176;-77
2020/12/21 04:04:17;;;;;;;2.23;1.47;;;;;;;3.82;86.32;96185.63;5073676;28;20715;-77
2020/12/21 04:06:42;;;;;;;4.97;1.70;;;;;;;3.77;86.10;96190.19;5073823;28;20204;-77
2020/12/21 04:09:07;;;;;;;6.13;1.60;;;;;;;3.79;86.53;96186.63;5072003;28;20215;-77
2020/12/21 04:11:33;;;;;;;2.63;1.40;;;;;;;3.84;86.23;96183.78;5091304;28;20191;-77
2020/12/21 04:13:58;;;;;;;2.13;1.53;;;;;;;3.85;86.12;96186.25;5073753;28;21964;-78
2020/12/21 04:16:23;;;;;;;3.43;1.50;;;;;;;3.88;86.21;96191.19;5073813;28;20589;-76
2020/12/21 04:18:49;;;;;;;2.50;1.50;;;;;;;3.87;86.27;96189.56;5056605;28;20202;-77
2020/12/21 04:21:14;;;;;;;3.47;1.63;;;;;;;3.88;86.00;96178.34;5056015;28;20203;-77
2020/12/21 04:23:40;;;;;;;5.77;1.57;;;;;;;3.96;86.01;96180.47;5056320;28;20181;-77
2020/12/21 04:26:06;;;;;;;3.87;1.47;;;;;;;3.94;85.77;96182.31;5057593;28;20256;-77
2020/12/21 04:28:32;;;;;;;2.93;1.60;;;;;;;3.96;85.62;96177.91;5073888;28;20189;-77
2020/12/21 04:31:04;;;;;;;4.40;1.50;;;;;;;3.98;85.47;96178.66;5065916;28;20219;-77
2020/12/21 04:33:30;;;;;;;2.53;1.50;;;;;;;3.98;85.52;96163.25;5086667;28;20185;-76
2020/12/21 04:35:55;;;;;;;3.07;1.30;;;;;;;3.98;85.64;96155.53;5079408;28;20196;-77
2020/12/21 04:38:20;;;;;;;3.70;1.27;;;;;;;4.06;85.45;96168.72;5095556;28;20202;-77
2020/12/21 04:40:57;;;;;;;4.13;1.70;;;;;;;4.00;85.26;96171.69;5076206;28;20169;-77
2020/12/21 04:43:23;;;;;;;4.30;1.90;;;;;;;3.98;85.62;96158.09;5075374;28;20171;-77
2020/12/21 04:45:50;;;;;;;3.47;1.70;;;;;;;3.97;85.16;96159.81;5094200;28;20560;-77
2020/12/21 04:48:16;;;;;;;2.00;1.43;;;;;;;4.01;85.66;96163.03;5077452;28;20194;-77
2020/12/21 04:50:41;;;;;;;1.90;1.50;;;;;;;4.02;85.60;96171.59;5095184;28;20200;-77
2020/12/21 04:53:08;;;;;;;4.03;1.40;;;;;;;4.02;85.16;96164.69;5059485;28;20182;-77
2020/12/21 04:55:33;;;;;;;4.90;2.00;;;;;;;4.01;85.57;96164.78;5076969;28;20282;-77
2020/12/21 04:58:02;;;;;;;5.43;1.80;;;;;;;3.99;85.66;96167.47;5074859;28;20263;-77
2020/12/21 05:00:30;;;;;;;5.37;2.77;;;;;;;4.02;85.43;96154.41;5093592;28;20594;-77
2020/12/21 05:02:55;;;;;;;6.17;2.30;;;;;;;4.07;85.12;96147.25;5075648;28;20180;-77
2020/12/21 05:05:28;;;;;;;4.97;2.07;;;;;;;4.13;84.89;96161.47;5076934;28;20265;-77
2020/12/21 05:07:54;;;;;;;2.87;1.97;;;;;;;4.02;85.21;96154.41;5076877;28;20552;-77
2020/12/21 05:10:19;;;;;;;3.67;2.17;;;;;;;4.00;85.55;96150.28;5075995;28;20207;-77
2020/12/21 05:12:44;;;;;;;2.57;1.90;;;;;;;4.01;84.95;96152.75;5076087;28;20184;-78
2020/12/21 05:15:13;;;;;;;6.03;2.07;;;;;;;3.93;85.33;96153.22;5092441;28;20215;-76
2020/12/21 05:17:39;;;;;;;2.17;1.80;;;;;;;3.95;85.33;96160.84;5076641;28;20180;-77
2020/12/21 05:20:04;;;;;;;4.77;1.80;;;;;;;3.93;85.60;96154.97;5076592;28;20644;-77
2020/12/21 05:22:29;;;;;;;4.50;1.97;;;;;;;3.93;85.55;96154.97;5076690;28;20218;-77
2020/12/21 05:25:06;;;;;;;3.30;2.47;;;;;;;3.94;85.83;96154.88;5075457;28;20207;-77
2020/12/21 05:27:31;;;;;;;4.30;2.17;;;;;;;3.91;85.53;96154.25;5076332;28;20544;-77
2020/12/21 05:29:57;;;;;;;11.97;4.77;;;;;;;3.94;85.08;96164.31;5076221;28;20215;-77
2020/12/21 05:32:22;;;;;;;11.87;4.20;;;;;;;3.92;85.29;96169.56;5076390;28;20172;-77
2020/12/21 05:34:48;;;;;;;5.30;2.37;;;;;;;3.94;85.56;96172.03;5073959;28;20713;-76
2020/12/21 05:37:20;;;;;;;7.13;1.90;;;;;;;3.88;84.97;96162.13;5073272;28;20178;-77
2020/12/21 05:39:53;;;;;;;4.33;2.03;;;;;;;3.87;84.79;96171.56;5093183;28;20177;-77
2020/12/21 05:42:19;;;;;;;4.13;1.77;;;;;;;3.82;85.05;96167.66;5093286;28;20165;-77
2020/12/21 05:45:00;;;;;;;3.47;1.60;;;;;;;3.82;85.19;96165.06;5075925;28;20291;-77
2020/12/21 05:47:26;;;;;;;4.40;1.70;;;;;;;3.79;85.21;96168.63;5073458;28;20649;-77
2020/12/21 05:49:53;;;;;;;2.33;1.60;;;;;;;3.81;85.41;96169.38;5075875;28;20208;-77
2020/12/21 05:52:26;;;;;;;5.33;1.60;;;;;;;3.89;84.99;96164.63;5094335;28;20204;-77
2020/12/21 05:54:53;;;;;;;4.57;1.40;;;;;;;3.91;85.15;96172.22;5075878;28;20206;-77
2020/12/21 05:57:19;;;;;;;2.70;1.30;;;;;;;3.91;85.03;96169.66;5055860;28;20197;-77
2020/12/21 05:59:47;;;;;;;2.40;1.47;;;;;;;4.00;85.27;96181.13;5072361;28;20655;-77
2020/12/21 06:02:12;;;;;;;4.03;1.70;;;;;;;3.93;85.20;96162.69;5055912;28;20199;-77
2020/12/21 06:04:39;;;;;;;2.60;1.20;;;;;;;3.97;84.66;96169.28;5055796;28;20200;-77
2020/12/21 06:07:10;;;;;;;5.87;1.53;;;;;;;3.95;85.17;96173.69;5062299;28;20185;-77
2020/12/21 06:09:35;;;;;;;2.93;1.60;;;;;;;3.98;85.09;96168.38;5066626;28;20220;-76
2020/12/21 06:12:02;;;;;;;1.47;1.23;;;;;;;4.03;84.54;96166.34;5075929;28;20176;-77
2020/12/21 06:14:28;;;;;;;3.77;1.43;;;;;;;4.12;84.57;96165.78;5059107;28;20676;-77
2020/12/21 06:16:54;;;;;;;2.37;1.33;;;;;;;4.17;84.42;96160.38;5074283;28;20184;-77
2020/12/21 06:19:25;;;;;;;2.73;1.57;;;;;;;4.22;84.06;96156.59;5083229;28;20187;-77
2020/12/21 06:21:54;;;;;;;2.80;1.33;;;;;;;4.26;84.08;96152.09;5075431;28;20176;-77
2020/12/21 06:24:20;;;;;;;5.60;1.60;;;;;;;4.23;83.86;96152.28;5058828;28;20333;-77
2020/12/21 06:26:46;;;;;;;4.73;1.90;;;;;;;4.17;84.23;96142.38;5075556;28;20259;-77
2020/12/21 06:29:25;;;;;;;6.40;2.40;;;;;;;4.18;84.29;96154.31;5073492;28;20616;-76
2020/12/21 06:31:52;;;;;;;3.03;1.90;;;;;;;4.10;84.29;96149.63;5075348;28;20213;-77
2020/12/21 06:34:29;;;;;;;3.77;2.17;;;;;;;4.10;84.35;96146.25;5092132;28;20205;-77
2020/12/21 06:37:11;;;;;;;5.83;1.63;;;;;;;4.08;84.52;96142.94;5075189;28;20186;-77
2020/12/21 06:39:37;;;;;;;4.77;1.70;;;;;;;4.04;84.58;96142.28;5057298;28;20192;-77
2020/12/21 06:42:06;;;;;;;3.77;2.03;;;;;;;4.01;84.99;96146.81;5054935;28;20545;-78
2020/12/21 06:44:33;;;;;;;2.70;1.50;;;;;;;4.05;84.60;96138.78;5054695;28;20201;-76
2020/12/21 06:46:59;;;;;;;6.60;2.23;;;;;;;4.02;84.52;96138.16;5071160;28;20705;-77
2020/12/21 06:49:25;;;;;;;4.87;1.70;;;;;;;4.05;84.66;96136.22;5057345;28;20220;-77
2020/12/21 06:51:51;;;;;;;8.10;2.20;;;;;;;4.07;84.53;96136.16;5086856;28;20563;-77
2020/12/21 06:54:17;;;;;;;6.87;2.50;;;;;;;4.03;84.69;96125.22;5092892;28;20188;-77
2020/12/21 06:56:45;;;;;;;4.43;2.20;;;;;;;4.02;84.70;96121.00;5075078;28;20575;-77
2020/12/21 06:59:18;;;;;;;3.80;1.80;;;;;;;3.94;85.00;96111.19;5074428;28;20173;-77
2020/12/21 07:01:45;;;;;;;6.33;2.20;;;;;;;3.94;84.65;96111.19;5069643;28;20188;-77
2020/12/21 07:04:19;;;;;;;3.90;2.30;;;;;;;3.89;85.15;96117.53;5054524;28;20231;-77
2020/12/21 07:06:48;;;;;;;4.40;2.40;;;;;;;3.80;84.89;96106.09;5074770;28;20595;-77
2020/12/21 07:09:16;;;;;;;5.40;2.50;;;;;;;3.82;85.38;96113.69;5074228;28;20205;-77
2020/12/21 07:11:42;;;;;;;3.00;2.10;;;;;;;3.82;84.87;96111.13;5056529;28;20188;-77
2020/12/21 07:14:11;;;;;;;4.07;2.73;;;;;;;3.79;85.10;96106.16;5057513;28;20223;-77
2020/12/21 07:16:36;;;;;;;4.83;2.80;;;;;;;3.78;84.54;96114.78;5074527;28;20172;-77
2020/12/21 07:19:01;;;;;;;7.00;2.80;;;;;;;3.72;84.68;96117.72;5092380;28;20179;-77
2020/12/21 07:21:27;;;;;;;5.30;2.87;;;;;;;3.75;84.69;96126.06;5072443;28;20275;-77
2020/12/21 07:23:57;;;;;;;6.53;3.10;;;;;;;3.67;84.79;96118.00;5064865;28;20181;-77
2020/12/21 07:26:24;;;;;;;5.47;2.60;;;;;;;3.67;85.07;96115.44;5072182;28;20656;-77
2020/12/21 07:28:50;;;;;;;5.03;2.43;;;;;;;3.75;84.85;96120.09;5053763;28;20215;-77
2020/12/21 07:31:17;;;;;;;6.07;3.30;;;;;;;3.65;85.08;96123.22;5054098;28;20181;-76
2020/12/21 07:33:57;;;;;;;4.00;3.00;;;;;;;3.68;85.17;96125.59;5045193;28;20184;-77
2020/12/21 07:36:34;;;;;;;6.13;2.93;;;;;;;3.68;85.04;96120.47;5074219;28;20279;-77
2020/12/21 07:39:14;;;;;;;4.97;3.10;;;;;;;3.68;84.98;96120.47;5092118;28;20180;-76
2020/12/21 07:41:54;;;;;;;5.37;3.17;;;;;;;3.68;84.89;96123.03;5074170;28;20263;-76
2020/12/21 07:44:28;;;;;;;4.17;2.43;;;;;;;3.70;85.13;96123.75;5071868;28;20816;-76
2020/12/21 07:47:12;;;;;;;5.07;3.00;;;;;;;3.67;85.07;96131.66;5073819;28;20189;-76
2020/12/21 07:49:38;;;;;;;3.60;3.17;;;;;;;3.66;85.08;96117.16;5073712;28;20264;-76
2020/12/21 07:52:05;;;;;;;6.67;3.13;;;;;;;3.72;85.30;96125.44;5073885;28;20179;-76
2020/12/21 07:54:37;;;;;;;3.63;2.33;;;;;;;3.72;85.00;96128.84;5071920;28;20211;-75
2020/12/21 07:57:07;;;;;;;5.97;3.67;;;;;;;3.77;84.62;96136.25;5053624;28;20192;-76
2020/12/21 07:59:32;;;;;;;7.77;3.50;;;;;;;3.79;84.71;96142.94;5053446;28;20177;-76
2020/12/21 08:01:59;;;;;;;6.60;3.20;;;;;;;3.75;84.91;96138.09;5068552;28;20193;-77
2020/12/21 08:04:24;;;;;;;3.83;3.20;;;;;;;3.81;84.70;96141.13;5059053;28;20243;-75
2020/12/21 08:06:50;;;;;;;4.40;2.90;;;;;;;3.84;84.69;96135.78;5056814;28;20206;-76
2020/12/21 08:09:15;;;;;;;5.70;3.07;;;;;;;3.83;84.46;96133.31;5073337;28;20544;-76
2020/12/21 08:11:41;;;;;;;4.50;3.03;;;;;;;3.82;84.36;96135.06;5056923;28;20218;-76
2020/12/21 08:14:15;;;;;;;7.37;3.47;;;;;;;3.82;84.56;96144.53;5073285;28;20194;-77
2020/12/21 08:16:40;;;;;;;8.40;3.10;;;;;;;3.91;84.63;96144.78;5068825;28;20184;-76
2020/12/21 08:19:10;;;;;;;5.67;3.07;;;;;;;3.96;84.33;96132.47;5069201;28;20180;-77
2020/12/21 08:21:35;;;;;;;4.50;2.83;;;;;;;3.96;84.24;96137.63;5057164;28;20546;-76
2020/12/21 08:24:01;;;;;;;4.00;2.70;;;;;;;3.98;83.99;96148.66;5091548;28;20196;-76
2020/12/21 08:26:26;;;;;;;3.33;2.50;;;;;;;4.06;83.91;96155.88;5054634;28;20182;-76
2020/12/21 08:28:52;;;;;;;5.70;2.40;;;;;;;4.06;83.02;96150.72;5091199;28;20262;-76
2020/12/21 08:31:22;;;;;;;6.33;2.60;;;;;;;4.10;83.15;96152.22;5056834;28;20176;-76
2020/12/21 08:34:01;;;;;;;3.73;2.40;;;;;;;4.19;83.02;96151.66;5090355;28;20172;-76
2020/12/21 08:36:34;;;;;;;6.03;3.20;;;;;;;4.20;82.93;96148.16;5055468;28;20273;-76
2020/12/21 08:39:16;;;;;;;3.83;3.30;;;;;;;4.20;82.99;96145.59;5073044;28;20170;-77
2020/12/21 08:41:52;;;;;;;6.47;3.20;;;;;;;4.25;83.09;96156.41;5091453;28;20179;-76
2020/12/21 08:44:28;;;;;;;4.50;2.73;;;;;;;4.23;82.98;96153.09;5090375;28;20342;-76
2020/12/21 08:46:54;;;;;;;3.53;2.70;;;;;;;4.29;83.12;96148.50;5071739;28;20680;-77
2020/12/21 08:49:24;;;;;;;9.37;3.13;;;;;;;4.35;82.61;96156.69;5072469;28;20231;-75
2020/12/21 08:51:51;;;;;;;4.60;2.80;;;;;;;4.29;82.28;96158.78;5054577;28;20193;-76
2020/12/21 08:54:16;;;;;;;4.50;2.53;;;;;;;4.31;82.37;96149.22;5072715;28;20738;-76
2020/12/21 08:56:46;;;;;;;5.63;2.70;;;;;;;4.44;82.18;96153.53;5073385;28;20268;-76
2020/12/21 08:59:11;;;;;;;3.77;2.60;;;;;;;4.38;82.12;96159.03;5072063;28;20233;-77
2020/12/21 09:01:43;;;;;;;3.27;2.97;;;;;;;4.46;82.08;96161.16;5073649;28;20688;-77
2020/12/21 09:04:09;;;;;;;3.90;2.57;;;;;;;4.47;81.30;96155.09;5073182;28;20208;-76
2020/12/21 09:06:35;;;;;;;3.77;2.40;;;;;;;4.50;81.82;96153.13;5056531;28;20275;-76
2020/12/21 09:09:00;;;;;;;3.20;2.40;;;;;;;4.54;80.91;96158.94;5072516;28;20626;-76
2020/12/21 09:11:26;;;;;;;5.17;2.50;;;;;;;4.58;81.59;96152.66;5085246;28;20586;-76
2020/12/21 09:13:52;;;;;;;6.93;2.80;;;;;;;4.59;81.28;96158.63;5094517;28;20185;-77
2020/12/21 09:16:18;;;;;;;5.43;3.20;;;;;;;4.64;81.26;96152.28;5060282;28;20619;-76
2020/12/21 09:18:44;;;;;;;5.27;2.93;;;;;;;4.67;80.86;96151.25;5091242;28;20217;-77
2020/12/21 09:21:09;;;;;;;6.87;3.00;;;;;;;4.66;81.34;96150.44;5094607;28;20636;-76
2020/12/21 09:23:35;;;;;;;3.03;2.43;;;;;;;4.68;81.59;96158.03;5056555;28;20209;-74
2020/12/21 09:26:03;;;;;;;4.63;2.20;;;;;;;4.72;80.77;96152.63;5074648;28;20201;-75
2020/12/21 09:28:28;;;;;;;5.10;2.63;;;;;;;4.80;80.75;96155.53;5039783;28;20176;-77
2020/12/21 09:30:54;;;;;;;4.23;2.30;;;;;;;4.84;80.09;96153.59;5086538;28;20624;-75
2020/12/21 09:33:19;;;;;;;3.43;2.40;;;;;;;4.88;80.64;96154.22;5059558;28;20184;-75
2020/12/21 09:35:44;;;;;;;3.17;2.50;;;;;;;4.87;80.43;96142.28;5076353;28;20223;-77
2020/12/21 09:38:10;;;;;;;4.43;2.57;;;;;;;4.84;80.63;96149.25;5059800;28;20212;-74
2020/12/21 09:40:35;;;;;;;4.20;2.60;;;;;;;4.90;80.52;96154.94;5089489;28;20185;-75
2020/12/21 09:43:00;;;;;;;5.27;2.53;;;;;;;4.89;80.55;96145.59;5070913;28;20173;-74
2020/12/21 09:45:26;;;;;;;3.47;2.50;;;;;;;5.05;79.91;96139.34;5094371;28;20196;-74
2020/12/21 09:47:51;;;;;;;3.17;2.70;;;;;;;5.01;80.44;96145.59;5076133;28;20235;-75
2020/12/21 09:50:16;;;;;;;4.43;2.87;;;;;;;4.96;80.25;96136.56;5075765;28;20208;-74
2020/12/21 09:52:42;;;;;;;4.33;2.80;;;;;;;5.01;79.72;96139.63;5070524;28;20246;-74
2020/12/21 09:55:11;;;;;;;4.93;2.67;;;;;;;5.04;79.26;96139.47;5066138;28;20236;-75
2020/12/21 09:57:36;;;;;;;5.07;2.47;;;;;;;5.08;80.00;96149.44;5091580;28;20629;-75
2020/12/21 10:00:02;;;;;;;6.07;2.80;;;;;;;5.16;79.72;96143.81;5073860;28;20272;-75
2020/12/21 10:02:28;;;;;;;3.93;2.60;;;;;;;5.13;80.13;96132.88;5091172;28;20198;-75
2020/12/21 10:04:53;;;;;;;5.10;2.90;;;;;;;5.08;79.72;96128.03;5075491;28;20203;-75
2020/12/21 10:07:18;;;;;;;6.03;2.40;;;;;;;5.16;79.70;96123.19;5078042;28;20585;-75
2020/12/21 10:09:43;;;;;;;5.23;2.87;;;;;;;5.28;79.49;96121.56;5093363;28;20198;-75
2020/12/21 10:12:09;;;;;;;5.53;2.50;;;;;;;5.26;79.05;96118.28;5073625;28;20195;-74
2020/12/21 10:14:34;;;;;;;5.33;2.77;;;;;;;5.32;78.85;96115.28;5086559;28;20275;-75
2020/12/21 10:16:59;;;;;;;3.83;2.77;;;;;;;5.21;79.05;96116.00;5075734;28;20678;-75
2020/12/21 10:19:25;;;;;;;3.43;2.80;;;;;;;5.20;79.33;96110.94;5075267;28;20222;-75
2020/12/21 10:21:50;;;;;;;5.90;3.13;;;;;;;5.25;79.58;96112.28;5075553;28;20177;-74
2020/12/21 10:24:15;;;;;;;4.00;2.77;;;;;;;5.22;79.63;96112.50;5072920;28;20215;-74
2020/12/21 10:26:41;;;;;;;5.50;2.63;;;;;;;5.21;79.62;96108.28;5055371;28;20226;-75
2020/12/21 10:29:07;;;;;;;3.13;2.50;;;;;;;5.29;79.26;96116.31;5038299;28;20332;-74
2020/12/21 10:31:32;;;;;;;4.80;2.80;;;;;;;5.33;79.14;96106.66;5038821;28;20629;-74
2020/12/21 10:33:57;;;;;;;5.97;2.83;;;;;;;5.36;78.93;96098.69;5059960;28;20192;-73
2020/12/21 10:36:23;;;;;;;3.27;2.37;;;;;;;5.38;78.52;96105.38;5071916;28;20216;-75
2020/12/21 10:38:49;;;;;;;4.77;2.40;;;;;;;5.28;79.32;96098.38;5038094;28;20212;-74
2020/12/21 10:41:18;;;;;;;5.20;2.43;;;;;;;5.32;79.33;96086.97;5055546;28;20655;-73
2020/12/21 10:43:44;;;;;;;4.90;2.80;;;;;;;5.27;79.25;96079.53;5061525;28;20188;-75
2020/12/21 10:46:09;;;;;;;3.17;2.50;;;;;;;5.35;78.73;96077.28;5071752;28;20208;-75
2020/12/21 10:48:35;;;;;;;4.57;2.43;;;;;;;5.34;78.57;96077.38;5054266;28;20524;-76
2020/12/21 10:51:00;;;;;;;4.90;2.90;;;;;;;5.35;78.81;96071.31;5072968;28;20227;-74
2020/12/21 10:53:25;;;;;;;4.93;2.70;;;;;;;5.39;78.58;96068.44;5079927;28;20194;-74
2020/12/21 10:55:51;;;;;;;8.40;3.10;;;;;;;5.44;78.37;96069.84;5074939;28;20192;-74
2020/12/21 10:58:16;;;;;;;3.87;2.77;;;;;;;5.40;77.91;96070.06;5074732;28;20713;-74
2020/12/21 11:00:41;;;;;;;6.53;2.83;;;;;;;5.45;78.72;96066.34;5057809;28;20632;-74
2020/12/21 11:03:07;;;;;;;6.87;2.97;;;;;;;5.49;78.29;96067.81;5073654;28;20168;-75
2020/12/21 11:05:32;;;;;;;4.20;3.10;;;;;;;5.47;78.44;96077.38;5067869;28;20849;-74
2020/12/21 11:07:57;;;;;;;7.07;2.90;;;;;;;5.35;78.53;96077.28;5092674;28;20176;-75
2020/12/21 11:10:23;;;;;;;7.07;2.93;;;;;;;5.32;78.98;96085.22;5091279;28;20210;-74
2020/12/21 11:12:48;;;;;;;5.43;3.03;;;;;;;5.43;78.72;96083.66;5091038;28;20238;-74
2020/12/21 11:15:13;;;;;;;7.70;3.40;;;;;;;5.46;78.81;96073.97;5064143;28;20216;-75
2020/12/21 11:17:39;;;;;;;5.00;3.00;;;;;;;5.49;78.49;96076.38;5046346;28;20183;-75
2020/12/21 11:20:04;;;;;;;4.17;2.43;;;;;;;5.40;78.34;96080.38;5054051;28;20181;-75
2020/12/21 11:22:29;;;;;;;5.27;2.97;;;;;;;5.44;78.40;96080.16;5066663;28;20286;-75
2020/12/21 11:24:55;;;;;;;6.90;2.87;;;;;;;5.45;78.48;96079.22;5072118;28;20205;-74
2020/12/21 11:27:20;;;;;;;4.13;2.87;;;;;;;5.42;78.63;96074.28;5092010;28;20187;-75
2020/12/21 11:29:46;;;;;;;4.87;3.00;;;;;;;5.47;78.29;96077.38;5091713;28;20220;-75
2020/12/21 11:32:11;;;;;;;3.77;2.50;;;;;;;5.38;78.71;96076.25;5090693;28;20181;-74
2020/12/21 11:34:37;;;;;;;5.20;2.27;;;;;;;5.46;78.45;96068.81;5090610;28;20589;-75
2020/12/21 11:37:02;;;;;;;4.50;2.10;;;;;;;5.53;78.44;96054.59;5089129;28;20185;-76
2020/12/21 11:39:27;;;;;;;4.47;2.80;;;;;;;5.46;78.84;96052.53;5072880;28;20662;-76